Terminal Aerodrome Forecast
Issued by NWS Wilmington, NC

Home | Current Version | Previous Version | Text Only | Print | Product List | Glossary On
Versions: 1 2 3 4 5 6 7 8 9 10 11 12 13 14 15 16 17 18
000
FTUS42 KILM 291300 AAA
TAFILM
TAF AMD
KILM 291330Z 2914/3012 00000KT 4SM BR VCSH SCT025 BKN080
     FM291400 03004KT 6SM BR VCSH SCT006 OVC010
      TEMPO 2914/2916 4SM -RA BR BKN006
     FM291600 01005KT 3SM -RA BR OVC005
     FM292100 02005KT 6SM BR VCSH OVC007
     FM300100 03004KT 3SM -DZ BR OVC004=

USA.gov is the U.S. government's official web portal to all federal, state and local government web resources and services.